sensor_id;sensor_type;location;lat;lon;timestamp;P1;durP1;ratioP1;P2;durP2;ratioP2
19341;SDS011;9807;48.258;12.690;2023-12-20T00:00:59;23.10;;;14.50;;
19341;SDS011;9807;48.258;12.690;2023-12-20T00:03:25;25.67;;;15.13;;
19341;SDS011;9807;48.258;12.690;2023-12-20T00:05:50;32.60;;;17.23;;
19341;SDS011;9807;48.258;12.690;2023-12-20T00:08:16;28.77;;;16.93;;
19341;SDS011;9807;48.258;12.690;2023-12-20T00:10:42;25.77;;;14.43;;
19341;SDS011;9807;48.258;12.690;2023-12-20T00:13:08;31.83;;;19.10;;
19341;SDS011;9807;48.258;12.690;2023-12-20T00:15:34;24.80;;;15.13;;
19341;SDS011;9807;48.258;12.690;2023-12-20T00:18:00;27.13;;;16.37;;
19341;SDS011;9807;48.258;12.690;2023-12-20T00:20:26;26.53;;;15.73;;
19341;SDS011;9807;48.258;12.690;2023-12-20T00:22:54;29.50;;;17.20;;
19341;SDS011;9807;48.258;12.690;2023-12-20T00:25:24;22.23;;;13.63;;
19341;SDS011;9807;48.258;12.690;2023-12-20T00:27:50;21.23;;;13.03;;
19341;SDS011;9807;48.258;12.690;2023-12-20T00:30:16;24.97;;;15.10;;
19341;SDS011;9807;48.258;12.690;2023-12-20T00:32:42;22.87;;;14.33;;
19341;SDS011;9807;48.258;12.690;2023-12-20T00:35:11;23.00;;;13.90;;
19341;SDS011;9807;48.258;12.690;2023-12-20T00:37:40;24.80;;;13.50;;
19341;SDS011;9807;48.258;12.690;2023-12-20T00:40:07;18.83;;;12.10;;
19341;SDS011;9807;48.258;12.690;2023-12-20T00:42:33;20.70;;;13.27;;
19341;SDS011;9807;48.258;12.690;2023-12-20T00:45:00;18.63;;;13.00;;
19341;SDS011;9807;48.258;12.690;2023-12-20T00:47:26;34.63;;;19.07;;
19341;SDS011;9807;48.258;12.690;2023-12-20T00:49:51;32.57;;;19.30;;
19341;SDS011;9807;48.258;12.690;2023-12-20T00:55:39;26.87;;;15.07;;
19341;SDS011;9807;48.258;12.690;2023-12-20T00:58:05;21.23;;;13.40;;
19341;SDS011;9807;48.258;12.690;2023-12-20T01:03:53;20.23;;;12.30;;
19341;SDS011;9807;48.258;12.690;2023-12-20T01:06:18;22.57;;;12.77;;
19341;SDS011;9807;48.258;12.690;2023-12-20T01:08:44;20.60;;;13.33;;
19341;SDS011;9807;48.258;12.690;2023-12-20T01:11:10;24.57;;;14.07;;
19341;SDS011;9807;48.258;12.690;2023-12-20T01:13:36;22.37;;;13.40;;
19341;SDS011;9807;48.258;12.690;2023-12-20T01:16:01;18.80;;;12.20;;
19341;SDS011;9807;48.258;12.690;2023-12-20T01:18:27;19.67;;;12.87;;
19341;SDS011;9807;48.258;12.690;2023-12-20T01:20:53;27.33;;;15.70;;
19341;SDS011;9807;48.258;12.690;2023-12-20T01:23:19;23.73;;;14.17;;
19341;SDS011;9807;48.258;12.690;2023-12-20T01:25:44;26.23;;;14.33;;
19341;SDS011;9807;48.258;12.690;2023-12-20T01:28:10;24.40;;;14.67;;
19341;SDS011;9807;48.258;12.690;2023-12-20T01:30:35;21.63;;;13.43;;
19341;SDS011;9807;48.258;12.690;2023-12-20T01:33:01;17.93;;;12.27;;
19341;SDS011;9807;48.258;12.690;2023-12-20T01:35:27;17.40;;;11.50;;
19341;SDS011;9807;48.258;12.690;2023-12-20T01:37:52;19.93;;;13.40;;
19341;SDS011;9807;48.258;12.690;2023-12-20T01:40:21;20.33;;;12.60;;
19341;SDS011;9807;48.258;12.690;2023-12-20T01:42:47;21.63;;;13.30;;
19341;SDS011;9807;48.258;12.690;2023-12-20T01:45:26;17.40;;;11.97;;
19341;SDS011;9807;48.258;12.690;2023-12-20T01:47:52;20.27;;;12.87;;
19341;SDS011;9807;48.258;12.690;2023-12-20T01:50:19;20.63;;;12.73;;
19341;SDS011;9807;48.258;12.690;2023-12-20T01:52:46;21.27;;;12.77;;
19341;SDS011;9807;48.258;12.690;2023-12-20T01:55:11;19.87;;;12.67;;
19341;SDS011;9807;48.258;12.690;2023-12-20T01:57:40;20.33;;;12.90;;
19341;SDS011;9807;48.258;12.690;2023-12-20T02:00:06;21.23;;;12.03;;
19341;SDS011;9807;48.258;12.690;2023-12-20T02:02:34;17.53;;;12.17;;
19341;SDS011;9807;48.258;12.690;2023-12-20T02:05:05;19.33;;;11.17;;
19341;SDS011;9807;48.258;12.690;2023-12-20T02:07:31;16.47;;;11.03;;
19341;SDS011;9807;48.258;12.690;2023-12-20T02:09:56;20.20;;;12.90;;
19341;SDS011;9807;48.258;12.690;2023-12-20T02:12:22;19.93;;;12.93;;
19341;SDS011;9807;48.258;12.690;2023-12-20T02:14:48;20.47;;;13.00;;
19341;SDS011;9807;48.258;12.690;2023-12-20T02:17:14;18.13;;;12.73;;
19341;SDS011;9807;48.258;12.690;2023-12-20T02:19:40;20.93;;;13.40;;
19341;SDS011;9807;48.258;12.690;2023-12-20T02:22:09;21.87;;;12.90;;
19341;SDS011;9807;48.258;12.690;2023-12-20T02:24:36;21.33;;;13.30;;
19341;SDS011;9807;48.258;12.690;2023-12-20T02:27:02;20.57;;;12.83;;
19341;SDS011;9807;48.258;12.690;2023-12-20T02:29:28;21.40;;;13.40;;
19341;SDS011;9807;48.258;12.690;2023-12-20T02:31:53;23.87;;;13.33;;
19341;SDS011;9807;48.258;12.690;2023-12-20T02:34:19;18.97;;;12.40;;
19341;SDS011;9807;48.258;12.690;2023-12-20T02:36:45;19.30;;;11.87;;
19341;SDS011;9807;48.258;12.690;2023-12-20T02:39:10;17.00;;;11.47;;
19341;SDS011;9807;48.258;12.690;2023-12-20T02:41:36;25.77;;;14.23;;
19341;SDS011;9807;48.258;12.690;2023-12-20T02:44:02;26.53;;;14.57;;
19341;SDS011;9807;48.258;12.690;2023-12-20T02:46:28;20.73;;;12.93;;
19341;SDS011;9807;48.258;12.690;2023-12-20T02:48:54;21.27;;;12.73;;
19341;SDS011;9807;48.258;12.690;2023-12-20T02:51:19;19.37;;;12.00;;
19341;SDS011;9807;48.258;12.690;2023-12-20T02:53:45;17.07;;;10.63;;
19341;SDS011;9807;48.258;12.690;2023-12-20T02:56:10;18.30;;;10.50;;
19341;SDS011;9807;48.258;12.690;2023-12-20T02:58:36;20.60;;;12.77;;
19341;SDS011;9807;48.258;12.690;2023-12-20T03:01:02;16.47;;;10.67;;
19341;SDS011;9807;48.258;12.690;2023-12-20T03:03:27;15.43;;;10.00;;
19341;SDS011;9807;48.258;12.690;2023-12-20T03:05:53;15.77;;;10.00;;
19341;SDS011;9807;48.258;12.690;2023-12-20T03:08:19;19.07;;;12.07;;
19341;SDS011;9807;48.258;12.690;2023-12-20T03:10:44;21.33;;;12.87;;
19341;SDS011;9807;48.258;12.690;2023-12-20T03:13:10;19.63;;;12.77;;
19341;SDS011;9807;48.258;12.690;2023-12-20T03:15:36;21.87;;;12.90;;
19341;SDS011;9807;48.258;12.690;2023-12-20T03:18:02;22.40;;;12.10;;
19341;SDS011;9807;48.258;12.690;2023-12-20T03:20:27;19.33;;;12.37;;
19341;SDS011;9807;48.258;12.690;2023-12-20T03:22:53;20.53;;;13.10;;
19341;SDS011;9807;48.258;12.690;2023-12-20T03:25:19;18.40;;;12.10;;
19341;SDS011;9807;48.258;12.690;2023-12-20T03:27:44;20.93;;;13.37;;
19341;SDS011;9807;48.258;12.690;2023-12-20T03:30:10;22.33;;;13.70;;
19341;SDS011;9807;48.258;12.690;2023-12-20T03:32:36;24.77;;;14.00;;
19341;SDS011;9807;48.258;12.690;2023-12-20T03:35:03;21.30;;;12.57;;
19341;SDS011;9807;48.258;12.690;2023-12-20T03:37:29;19.07;;;11.27;;
19341;SDS011;9807;48.258;12.690;2023-12-20T03:39:54;19.50;;;11.57;;
19341;SDS011;9807;48.258;12.690;2023-12-20T03:42:20;16.77;;;10.87;;
19341;SDS011;9807;48.258;12.690;2023-12-20T03:44:46;15.93;;;10.00;;
19341;SDS011;9807;48.258;12.690;2023-12-20T03:47:11;15.73;;;10.50;;
19341;SDS011;9807;48.258;12.690;2023-12-20T03:49:37;17.20;;;11.13;;
19341;SDS011;9807;48.258;12.690;2023-12-20T03:52:03;16.50;;;10.20;;
19341;SDS011;9807;48.258;12.690;2023-12-20T03:54:30;18.30;;;10.93;;
19341;SDS011;9807;48.258;12.690;2023-12-20T03:56:55;17.50;;;11.00;;
19341;SDS011;9807;48.258;12.690;2023-12-20T03:59:21;21.90;;;11.77;;
19341;SDS011;9807;48.258;12.690;2023-12-20T04:01:47;17.10;;;9.90;;
19341;SDS011;9807;48.258;12.690;2023-12-20T04:04:12;14.83;;;9.23;;
19341;SDS011;9807;48.258;12.690;2023-12-20T04:06:38;14.57;;;9.23;;
19341;SDS011;9807;48.258;12.690;2023-12-20T04:09:04;19.50;;;10.63;;
19341;SDS011;9807;48.258;12.690;2023-12-20T04:11:30;15.33;;;8.90;;
19341;SDS011;9807;48.258;12.690;2023-12-20T04:13:56;16.73;;;9.80;;
19341;SDS011;9807;48.258;12.690;2023-12-20T04:16:21;15.97;;;10.43;;
19341;SDS011;9807;48.258;12.690;2023-12-20T04:18:47;17.07;;;10.33;;
19341;SDS011;9807;48.258;12.690;2023-12-20T04:21:13;18.53;;;11.23;;
19341;SDS011;9807;48.258;12.690;2023-12-20T04:23:38;18.33;;;11.03;;
19341;SDS011;9807;48.258;12.690;2023-12-20T04:26:04;21.67;;;12.80;;
19341;SDS011;9807;48.258;12.690;2023-12-20T04:28:30;19.10;;;11.83;;
19341;SDS011;9807;48.258;12.690;2023-12-20T04:30:55;17.60;;;11.37;;
19341;SDS011;9807;48.258;12.690;2023-12-20T04:33:21;20.53;;;12.80;;
19341;SDS011;9807;48.258;12.690;2023-12-20T04:35:47;23.90;;;13.53;;
19341;SDS011;9807;48.258;12.690;2023-12-20T04:38:13;23.20;;;13.03;;
19341;SDS011;9807;48.258;12.690;2023-12-20T04:40:39;20.83;;;13.37;;
19341;SDS011;9807;48.258;12.690;2023-12-20T04:43:06;21.17;;;13.93;;
19341;SDS011;9807;48.258;12.690;2023-12-20T04:45:32;22.90;;;14.47;;
19341;SDS011;9807;48.258;12.690;2023-12-20T04:47:57;22.13;;;13.23;;
19341;SDS011;9807;48.258;12.690;2023-12-20T04:50:23;22.43;;;13.53;;
19341;SDS011;9807;48.258;12.690;2023-12-20T04:52:49;26.40;;;14.80;;
19341;SDS011;9807;48.258;12.690;2023-12-20T04:55:15;21.67;;;14.00;;
19341;SDS011;9807;48.258;12.690;2023-12-20T04:57:41;20.03;;;12.83;;
19341;SDS011;9807;48.258;12.690;2023-12-20T05:00:06;19.43;;;12.43;;
19341;SDS011;9807;48.258;12.690;2023-12-20T05:02:34;18.60;;;11.47;;
19341;SDS011;9807;48.258;12.690;2023-12-20T05:05:02;23.97;;;14.43;;
19341;SDS011;9807;48.258;12.690;2023-12-20T05:07:28;23.00;;;11.80;;
19341;SDS011;9807;48.258;12.690;2023-12-20T05:09:53;17.73;;;10.60;;
19341;SDS011;9807;48.258;12.690;2023-12-20T05:12:19;16.90;;;10.63;;
19341;SDS011;9807;48.258;12.690;2023-12-20T05:14:45;16.67;;;10.03;;
19341;SDS011;9807;48.258;12.690;2023-12-20T05:17:11;12.23;;;8.37;;
19341;SDS011;9807;48.258;12.690;2023-12-20T05:19:37;15.83;;;9.60;;
19341;SDS011;9807;48.258;12.690;2023-12-20T05:22:02;13.37;;;9.00;;
19341;SDS011;9807;48.258;12.690;2023-12-20T05:24:28;15.73;;;10.20;;
19341;SDS011;9807;48.258;12.690;2023-12-20T05:26:54;17.93;;;9.63;;
19341;SDS011;9807;48.258;12.690;2023-12-20T05:29:20;22.37;;;13.27;;
19341;SDS011;9807;48.258;12.690;2023-12-20T05:31:46;19.47;;;12.30;;
19341;SDS011;9807;48.258;12.690;2023-12-20T05:34:11;24.63;;;13.43;;
19341;SDS011;9807;48.258;12.690;2023-12-20T05:36:37;19.57;;;12.03;;
19341;SDS011;9807;48.258;12.690;2023-12-20T05:39:04;19.87;;;12.03;;
19341;SDS011;9807;48.258;12.690;2023-12-20T05:41:30;21.87;;;12.80;;
19341;SDS011;9807;48.258;12.690;2023-12-20T05:43:56;22.63;;;13.63;;
19341;SDS011;9807;48.258;12.690;2023-12-20T05:46:23;18.93;;;11.33;;
19341;SDS011;9807;48.258;12.690;2023-12-20T05:48:49;19.60;;;11.97;;
19341;SDS011;9807;48.258;12.690;2023-12-20T05:51:14;29.10;;;15.30;;
19341;SDS011;9807;48.258;12.690;2023-12-20T05:53:40;18.97;;;12.53;;
19341;SDS011;9807;48.258;12.690;2023-12-20T05:56:06;25.83;;;15.73;;
19341;SDS011;9807;48.258;12.690;2023-12-20T05:58:33;30.87;;;14.47;;
19341;SDS011;9807;48.258;12.690;2023-12-20T06:00:59;21.10;;;13.00;;
19341;SDS011;9807;48.258;12.690;2023-12-20T06:03:24;22.90;;;12.87;;
19341;SDS011;9807;48.258;12.690;2023-12-20T06:05:50;32.03;;;12.67;;
19341;SDS011;9807;48.258;12.690;2023-12-20T06:08:15;19.87;;;8.50;;
19341;SDS011;9807;48.258;12.690;2023-12-20T06:10:41;20.57;;;7.80;;
19341;SDS011;9807;48.258;12.690;2023-12-20T06:13:07;21.20;;;6.63;;
19341;SDS011;9807;48.258;12.690;2023-12-20T06:15:32;18.90;;;5.97;;
19341;SDS011;9807;48.258;12.690;2023-12-20T06:17:58;13.80;;;5.50;;
19341;SDS011;9807;48.258;12.690;2023-12-20T06:20:24;15.23;;;5.33;;
19341;SDS011;9807;48.258;12.690;2023-12-20T06:22:50;13.13;;;4.43;;
19341;SDS011;9807;48.258;12.690;2023-12-20T06:25:16;15.87;;;5.27;;
19341;SDS011;9807;48.258;12.690;2023-12-20T06:27:41;17.07;;;5.07;;
19341;SDS011;9807;48.258;12.690;2023-12-20T06:30:07;13.73;;;4.90;;
19341;SDS011;9807;48.258;12.690;2023-12-20T06:32:36;14.73;;;4.10;;
19341;SDS011;9807;48.258;12.690;2023-12-20T06:35:03;11.00;;;4.37;;
19341;SDS011;9807;48.258;12.690;2023-12-20T06:37:30;20.13;;;4.93;;
19341;SDS011;9807;48.258;12.690;2023-12-20T06:39:55;13.57;;;5.20;;
19341;SDS011;9807;48.258;12.690;2023-12-20T06:42:22;13.70;;;4.17;;
19341;SDS011;9807;48.258;12.690;2023-12-20T06:44:47;11.97;;;4.97;;
19341;SDS011;9807;48.258;12.690;2023-12-20T06:47:13;19.13;;;6.33;;
19341;SDS011;9807;48.258;12.690;2023-12-20T06:49:39;18.73;;;6.30;;
19341;SDS011;9807;48.258;12.690;2023-12-20T06:52:05;14.90;;;5.43;;
19341;SDS011;9807;48.258;12.690;2023-12-20T06:54:31;18.03;;;6.03;;
19341;SDS011;9807;48.258;12.690;2023-12-20T06:56:59;9.40;;;4.30;;
19341;SDS011;9807;48.258;12.690;2023-12-20T06:59:24;15.43;;;4.80;;
19341;SDS011;9807;48.258;12.690;2023-12-20T07:01:51;14.67;;;4.97;;
19341;SDS011;9807;48.258;12.690;2023-12-20T07:04:16;15.40;;;5.03;;
19341;SDS011;9807;48.258;12.690;2023-12-20T07:06:46;12.63;;;4.90;;
19341;SDS011;9807;48.258;12.690;2023-12-20T07:09:13;24.97;;;5.70;;
19341;SDS011;9807;48.258;12.690;2023-12-20T07:11:39;14.97;;;6.30;;
19341;SDS011;9807;48.258;12.690;2023-12-20T07:14:05;22.47;;;7.93;;
19341;SDS011;9807;48.258;12.690;2023-12-20T07:16:30;25.50;;;7.43;;
19341;SDS011;9807;48.258;12.690;2023-12-20T07:18:56;21.83;;;8.77;;
19341;SDS011;9807;48.258;12.690;2023-12-20T07:21:22;22.00;;;8.77;;
19341;SDS011;9807;48.258;12.690;2023-12-20T07:23:48;10.83;;;4.07;;
19341;SDS011;9807;48.258;12.690;2023-12-20T07:26:14;13.40;;;4.53;;
19341;SDS011;9807;48.258;12.690;2023-12-20T07:28:40;9.87;;;4.40;;
19341;SDS011;9807;48.258;12.690;2023-12-20T07:31:06;6.53;;;4.47;;
19341;SDS011;9807;48.258;12.690;2023-12-20T07:33:31;11.90;;;6.27;;
19341;SDS011;9807;48.258;12.690;2023-12-20T07:35:58;15.33;;;6.13;;
19341;SDS011;9807;48.258;12.690;2023-12-20T07:38:25;12.17;;;5.97;;
19341;SDS011;9807;48.258;12.690;2023-12-20T07:40:51;14.00;;;5.37;;
19341;SDS011;9807;48.258;12.690;2023-12-20T07:43:17;9.63;;;4.63;;
19341;SDS011;9807;48.258;12.690;2023-12-20T07:45:42;9.23;;;4.77;;
19341;SDS011;9807;48.258;12.690;2023-12-20T07:48:08;9.80;;;4.90;;
19341;SDS011;9807;48.258;12.690;2023-12-20T07:50:34;7.53;;;5.13;;
19341;SDS011;9807;48.258;12.690;2023-12-20T07:53:00;11.17;;;4.60;;
19341;SDS011;9807;48.258;12.690;2023-12-20T07:55:26;14.47;;;5.30;;
19341;SDS011;9807;48.258;12.690;2023-12-20T07:57:52;11.50;;;4.83;;
19341;SDS011;9807;48.258;12.690;2023-12-20T08:00:18;10.40;;;5.40;;
19341;SDS011;9807;48.258;12.690;2023-12-20T08:02:44;12.83;;;5.00;;
19341;SDS011;9807;48.258;12.690;2023-12-20T08:05:10;8.10;;;4.83;;
19341;SDS011;9807;48.258;12.690;2023-12-20T08:07:36;13.63;;;5.80;;
19341;SDS011;9807;48.258;12.690;2023-12-20T08:10:02;7.27;;;3.57;;
19341;SDS011;9807;48.258;12.690;2023-12-20T08:12:27;14.13;;;4.80;;
19341;SDS011;9807;48.258;12.690;2023-12-20T08:14:53;7.83;;;4.60;;
19341;SDS011;9807;48.258;12.690;2023-12-20T08:17:19;10.17;;;4.73;;
19341;SDS011;9807;48.258;12.690;2023-12-20T08:19:45;8.23;;;4.60;;
19341;SDS011;9807;48.258;12.690;2023-12-20T08:22:11;9.30;;;4.53;;
19341;SDS011;9807;48.258;12.690;2023-12-20T08:24:37;12.33;;;4.90;;
19341;SDS011;9807;48.258;12.690;2023-12-20T08:27:03;9.97;;;5.10;;
19341;SDS011;9807;48.258;12.690;2023-12-20T08:29:29;12.73;;;6.67;;
19341;SDS011;9807;48.258;12.690;2023-12-20T08:31:55;13.97;;;5.60;;
19341;SDS011;9807;48.258;12.690;2023-12-20T08:34:22;8.27;;;4.23;;
19341;SDS011;9807;48.258;12.690;2023-12-20T08:36:48;13.50;;;5.33;;
19341;SDS011;9807;48.258;12.690;2023-12-20T08:39:16;11.13;;;4.60;;
19341;SDS011;9807;48.258;12.690;2023-12-20T08:41:42;5.50;;;3.53;;
19341;SDS011;9807;48.258;12.690;2023-12-20T08:44:08;6.23;;;3.23;;
19341;SDS011;9807;48.258;12.690;2023-12-20T08:46:34;4.57;;;3.20;;
19341;SDS011;9807;48.258;12.690;2023-12-20T08:49:00;8.50;;;4.00;;
19341;SDS011;9807;48.258;12.690;2023-12-20T08:51:26;10.43;;;3.37;;
19341;SDS011;9807;48.258;12.690;2023-12-20T08:53:53;9.93;;;4.43;;
19341;SDS011;9807;48.258;12.690;2023-12-20T08:56:19;12.20;;;5.93;;
19341;SDS011;9807;48.258;12.690;2023-12-20T08:58:45;11.17;;;5.60;;
19341;SDS011;9807;48.258;12.690;2023-12-20T09:01:12;9.27;;;4.70;;
19341;SDS011;9807;48.258;12.690;2023-12-20T09:03:38;4.10;;;2.83;;
19341;SDS011;9807;48.258;12.690;2023-12-20T09:06:05;4.40;;;2.80;;
19341;SDS011;9807;48.258;12.690;2023-12-20T09:08:31;3.53;;;2.50;;
19341;SDS011;9807;48.258;12.690;2023-12-20T09:10:57;5.67;;;2.73;;
19341;SDS011;9807;48.258;12.690;2023-12-20T09:13:22;3.53;;;2.87;;
19341;SDS011;9807;48.258;12.690;2023-12-20T09:15:54;5.73;;;2.93;;
19341;SDS011;9807;48.258;12.690;2023-12-20T09:18:22;7.07;;;2.93;;
19341;SDS011;9807;48.258;12.690;2023-12-20T09:20:49;7.90;;;2.80;;
19341;SDS011;9807;48.258;12.690;2023-12-20T09:23:15;5.60;;;2.87;;
19341;SDS011;9807;48.258;12.690;2023-12-20T09:25:40;5.83;;;2.80;;
19341;SDS011;9807;48.258;12.690;2023-12-20T09:28:06;9.93;;;3.23;;
19341;SDS011;9807;48.258;12.690;2023-12-20T09:30:32;6.10;;;3.23;;
19341;SDS011;9807;48.258;12.690;2023-12-20T09:32:58;7.97;;;3.33;;
19341;SDS011;9807;48.258;12.690;2023-12-20T09:35:24;7.27;;;4.23;;
19341;SDS011;9807;48.258;12.690;2023-12-20T09:37:50;11.80;;;5.03;;
19341;SDS011;9807;48.258;12.690;2023-12-20T09:40:19;6.87;;;3.83;;
19341;SDS011;9807;48.258;12.690;2023-12-20T09:45:25;4.27;;;2.90;;
19341;SDS011;9807;48.258;12.690;2023-12-20T09:47:52;4.23;;;2.60;;
19341;SDS011;9807;48.258;12.690;2023-12-20T09:50:19;7.80;;;3.30;;
19341;SDS011;9807;48.258;12.690;2023-12-20T09:52:49;5.90;;;2.77;;
19341;SDS011;9807;48.258;12.690;2023-12-20T09:55:19;9.53;;;2.70;;
19341;SDS011;9807;48.258;12.690;2023-12-20T09:57:46;6.73;;;2.23;;
19341;SDS011;9807;48.258;12.690;2023-12-20T10:00:13;3.97;;;2.60;;
19341;SDS011;9807;48.258;12.690;2023-12-20T10:02:59;3.73;;;2.67;;
19341;SDS011;9807;48.258;12.690;2023-12-20T10:05:29;4.13;;;2.10;;
19341;SDS011;9807;48.258;12.690;2023-12-20T10:07:56;5.97;;;2.40;;
19341;SDS011;9807;48.258;12.690;2023-12-20T10:10:22;4.70;;;2.10;;
19341;SDS011;9807;48.258;12.690;2023-12-20T10:13:10;3.37;;;2.10;;
19341;SDS011;9807;48.258;12.690;2023-12-20T10:15:36;6.13;;;2.30;;
19341;SDS011;9807;48.258;12.690;2023-12-20T10:18:03;8.40;;;2.10;;
19341;SDS011;9807;48.258;12.690;2023-12-20T10:20:30;3.10;;;2.10;;
19341;SDS011;9807;48.258;12.690;2023-12-20T10:22:56;2.30;;;1.70;;
19341;SDS011;9807;48.258;12.690;2023-12-20T10:25:24;4.77;;;1.77;;
19341;SDS011;9807;48.258;12.690;2023-12-20T10:28:08;4.90;;;2.00;;
19341;SDS011;9807;48.258;12.690;2023-12-20T10:30:38;1.97;;;1.77;;
19341;SDS011;9807;48.258;12.690;2023-12-20T10:33:05;3.00;;;1.97;;
19341;SDS011;9807;48.258;12.690;2023-12-20T10:35:35;4.80;;;2.60;;
19341;SDS011;9807;48.258;12.690;2023-12-20T10:38:02;8.30;;;2.77;;
19341;SDS011;9807;48.258;12.690;2023-12-20T10:40:30;10.17;;;4.17;;
19341;SDS011;9807;48.258;12.690;2023-12-20T10:42:56;6.43;;;2.17;;
19341;SDS011;9807;48.258;12.690;2023-12-20T10:45:24;5.90;;;2.33;;
19341;SDS011;9807;48.258;12.690;2023-12-20T10:47:50;5.47;;;2.47;;
19341;SDS011;9807;48.258;12.690;2023-12-20T10:50:16;2.97;;;2.17;;
19341;SDS011;9807;48.258;12.690;2023-12-20T10:52:43;2.50;;;1.90;;
19341;SDS011;9807;48.258;12.690;2023-12-20T10:55:10;3.30;;;2.27;;
19341;SDS011;9807;48.258;12.690;2023-12-20T10:57:36;5.53;;;2.83;;
19341;SDS011;9807;48.258;12.690;2023-12-20T11:00:02;11.27;;;3.30;;
19341;SDS011;9807;48.258;12.690;2023-12-20T11:02:32;6.80;;;3.00;;
19341;SDS011;9807;48.258;12.690;2023-12-20T11:08:48;7.23;;;3.90;;
19341;SDS011;9807;48.258;12.690;2023-12-20T11:11:04;6.53;;;3.17;;
19341;SDS011;9807;48.258;12.690;2023-12-20T11:13:35;6.67;;;3.30;;
19341;SDS011;9807;48.258;12.690;2023-12-20T11:16:07;8.03;;;4.43;;
19341;SDS011;9807;48.258;12.690;2023-12-20T11:18:33;7.37;;;4.07;;
19341;SDS011;9807;48.258;12.690;2023-12-20T11:21:02;8.17;;;2.90;;
19341;SDS011;9807;48.258;12.690;2023-12-20T11:23:30;6.83;;;3.33;;
19341;SDS011;9807;48.258;12.690;2023-12-20T11:25:58;5.13;;;3.67;;
19341;SDS011;9807;48.258;12.690;2023-12-20T11:28:25;7.63;;;3.27;;
19341;SDS011;9807;48.258;12.690;2023-12-20T11:33:21;2.77;;;2.47;;
19341;SDS011;9807;48.258;12.690;2023-12-20T11:35:51;5.80;;;2.90;;
19341;SDS011;9807;48.258;12.690;2023-12-20T11:38:20;3.97;;;2.67;;
19341;SDS011;9807;48.258;12.690;2023-12-20T11:40:47;5.37;;;2.80;;
19341;SDS011;9807;48.258;12.690;2023-12-20T11:43:30;5.60;;;3.20;;
19341;SDS011;9807;48.258;12.690;2023-12-20T11:46:02;7.50;;;3.40;;
19341;SDS011;9807;48.258;12.690;2023-12-20T11:48:32;6.60;;;3.03;;
19341;SDS011;9807;48.258;12.690;2023-12-20T11:50:59;12.07;;;4.23;;
19341;SDS011;9807;48.258;12.690;2023-12-20T11:53:25;11.33;;;3.60;;
19341;SDS011;9807;48.258;12.690;2023-12-20T11:55:51;5.10;;;3.63;;
19341;SDS011;9807;48.258;12.690;2023-12-20T11:58:16;15.13;;;7.17;;
19341;SDS011;9807;48.258;12.690;2023-12-20T12:00:42;8.03;;;4.07;;
19341;SDS011;9807;48.258;12.690;2023-12-20T12:03:08;6.10;;;4.00;;
19341;SDS011;9807;48.258;12.690;2023-12-20T12:05:34;8.50;;;3.93;;
19341;SDS011;9807;48.258;12.690;2023-12-20T12:08:01;8.63;;;5.33;;
19341;SDS011;9807;48.258;12.690;2023-12-20T12:10:27;7.47;;;4.03;;
19341;SDS011;9807;48.258;12.690;2023-12-20T12:12:53;12.73;;;5.63;;
19341;SDS011;9807;48.258;12.690;2023-12-20T12:15:20;20.53;;;7.70;;
19341;SDS011;9807;48.258;12.690;2023-12-20T12:17:53;7.13;;;3.97;;
19341;SDS011;9807;48.258;12.690;2023-12-20T12:20:22;4.50;;;3.07;;
19341;SDS011;9807;48.258;12.690;2023-12-20T12:23:04;4.10;;;2.40;;
19341;SDS011;9807;48.258;12.690;2023-12-20T12:25:31;6.07;;;2.50;;
19341;SDS011;9807;48.258;12.690;2023-12-20T12:27:58;5.00;;;2.53;;
19341;SDS011;9807;48.258;12.690;2023-12-20T12:30:24;6.23;;;2.33;;
19341;SDS011;9807;48.258;12.690;2023-12-20T12:32:51;3.70;;;2.63;;
19341;SDS011;9807;48.258;12.690;2023-12-20T12:35:17;7.23;;;3.13;;
19341;SDS011;9807;48.258;12.690;2023-12-20T12:37:44;4.80;;;3.07;;
19341;SDS011;9807;48.258;12.690;2023-12-20T12:40:10;3.50;;;2.80;;
19341;SDS011;9807;48.258;12.690;2023-12-20T12:42:37;3.07;;;2.13;;
19341;SDS011;9807;48.258;12.690;2023-12-20T12:45:03;2.43;;;1.90;;
19341;SDS011;9807;48.258;12.690;2023-12-20T12:47:29;4.20;;;1.90;;
19341;SDS011;9807;48.258;12.690;2023-12-20T12:49:55;4.07;;;2.50;;
19341;SDS011;9807;48.258;12.690;2023-12-20T12:52:21;2.97;;;2.10;;
19341;SDS011;9807;48.258;12.690;2023-12-20T12:54:47;1.93;;;1.63;;
19341;SDS011;9807;48.258;12.690;2023-12-20T12:57:13;1.57;;;1.40;;
19341;SDS011;9807;48.258;12.690;2023-12-20T12:59:40;2.43;;;1.40;;
19341;SDS011;9807;48.258;12.690;2023-12-20T13:02:07;1.70;;;1.60;;
19341;SDS011;9807;48.258;12.690;2023-12-20T13:04:33;2.80;;;2.00;;
19341;SDS011;9807;48.258;12.690;2023-12-20T13:06:59;3.50;;;1.83;;
19341;SDS011;9807;48.258;12.690;2023-12-20T13:09:25;4.90;;;2.27;;
19341;SDS011;9807;48.258;12.690;2023-12-20T13:11:50;4.57;;;1.80;;
19341;SDS011;9807;48.258;12.690;2023-12-20T13:14:16;2.93;;;2.30;;
19341;SDS011;9807;48.258;12.690;2023-12-20T13:16:44;3.17;;;2.20;;
19341;SDS011;9807;48.258;12.690;2023-12-20T13:19:10;3.50;;;2.03;;
19341;SDS011;9807;48.258;12.690;2023-12-20T13:21:36;6.13;;;2.33;;
19341;SDS011;9807;48.258;12.690;2023-12-20T13:24:02;3.43;;;2.50;;
19341;SDS011;9807;48.258;12.690;2023-12-20T13:26:28;4.70;;;2.90;;
19341;SDS011;9807;48.258;12.690;2023-12-20T13:28:54;5.40;;;3.30;;
19341;SDS011;9807;48.258;12.690;2023-12-20T13:31:19;7.87;;;3.47;;
19341;SDS011;9807;48.258;12.690;2023-12-20T13:33:45;6.93;;;3.47;;
19341;SDS011;9807;48.258;12.690;2023-12-20T13:36:11;9.23;;;3.60;;
19341;SDS011;9807;48.258;12.690;2023-12-20T13:38:38;9.87;;;3.90;;
19341;SDS011;9807;48.258;12.690;2023-12-20T13:41:04;6.33;;;3.33;;
19341;SDS011;9807;48.258;12.690;2023-12-20T13:43:31;3.93;;;2.93;;
19341;SDS011;9807;48.258;12.690;2023-12-20T13:45:58;5.33;;;3.30;;
19341;SDS011;9807;48.258;12.690;2023-12-20T13:48:24;6.43;;;3.10;;
19341;SDS011;9807;48.258;12.690;2023-12-20T13:50:50;5.60;;;2.90;;
19341;SDS011;9807;48.258;12.690;2023-12-20T13:53:16;4.87;;;3.20;;
19341;SDS011;9807;48.258;12.690;2023-12-20T13:55:41;6.20;;;3.27;;
19341;SDS011;9807;48.258;12.690;2023-12-20T13:58:07;7.53;;;4.00;;
19341;SDS011;9807;48.258;12.690;2023-12-20T14:00:35;6.30;;;4.13;;
19341;SDS011;9807;48.258;12.690;2023-12-20T14:03:01;5.53;;;3.67;;
19341;SDS011;9807;48.258;12.690;2023-12-20T14:05:28;5.70;;;3.50;;
19341;SDS011;9807;48.258;12.690;2023-12-20T14:07:54;11.00;;;4.73;;
19341;SDS011;9807;48.258;12.690;2023-12-20T14:10:19;9.33;;;5.07;;
19341;SDS011;9807;48.258;12.690;2023-12-20T14:12:45;7.93;;;4.83;;
19341;SDS011;9807;48.258;12.690;2023-12-20T14:15:11;12.90;;;5.03;;
19341;SDS011;9807;48.258;12.690;2023-12-20T14:17:38;6.90;;;4.30;;
19341;SDS011;9807;48.258;12.690;2023-12-20T14:20:07;6.70;;;4.27;;
19341;SDS011;9807;48.258;12.690;2023-12-20T14:22:34;7.40;;;4.63;;
19341;SDS011;9807;48.258;12.690;2023-12-20T14:25:00;8.07;;;4.40;;
19341;SDS011;9807;48.258;12.690;2023-12-20T14:27:26;8.77;;;5.20;;
19341;SDS011;9807;48.258;12.690;2023-12-20T14:29:58;8.13;;;5.00;;
19341;SDS011;9807;48.258;12.690;2023-12-20T14:32:24;8.83;;;4.83;;
19341;SDS011;9807;48.258;12.690;2023-12-20T14:34:52;6.07;;;4.13;;
19341;SDS011;9807;48.258;12.690;2023-12-20T14:37:19;4.97;;;3.07;;
19341;SDS011;9807;48.258;12.690;2023-12-20T14:39:45;6.17;;;3.70;;
19341;SDS011;9807;48.258;12.690;2023-12-20T14:42:11;6.20;;;4.20;;
19341;SDS011;9807;48.258;12.690;2023-12-20T14:44:39;5.77;;;4.20;;
19341;SDS011;9807;48.258;12.690;2023-12-20T14:47:06;5.20;;;3.63;;